Weather reports worldwide

Advertisment
Concordia Sagittaria, Italy (16107): temperature & dewpoint: 15.09.2018 01:00:00 - 21.09.2018 01:00:00 (CEST)Concordia Sagittaria, Italy (16107): wind speed: 15.09.2018 01:00:00 - 21.09.2018 01:00:00 (CEST)Concordia Sagittaria, Italy (16107): wind direction: 15.09.2018 01:00:00 - 21.09.2018 01:00:00 (CEST)Concordia Sagittaria, Italy (16107): reduced air pressure: 15.09.2018 01:00:00 - 21.09.2018 01:00:00 (CEST)Concordia Sagittaria, Italy (16107): precipitation: 15.09.2018 01:00:00 - 21.09.2018 01:00:00 (CEST)
Date & Time tt [°C] td [°C] ff [km/h] ff [kn] dd ppp [hPa] rr [mm]
21.09.2018 01:00:00 20,7 17,4 5 3 NNE 1022,2 -
21.09.2018 00:00:00 20,8 17,3 5 3 NNE 1022,0 -
20.09.2018 23:00:00 21,4 16,3 0 0 N 1021,8 -
20.09.2018 22:00:00 23,1 16,1 4 2 SW 1021,6 -
20.09.2018 21:00:00 26,3 16,5 4 2 S 1021,4 -
20.09.2018 20:00:00 28,7 16,2 8 4 S 1021,4 0,0
20.09.2018 19:00:00 29,6 17,4 8 4 SE 1021,6 -
20.09.2018 18:00:00 30,5 16,1 0 0 N 1021,8 -
20.09.2018 17:00:00 30,7 16,3 2 1 ESE 1022,3 -
20.09.2018 16:00:00 30,1 17,2 9 5 ENE 1022,9 -
20.09.2018 15:00:00 29,3 17,1 11 6 NNE 1023,4 -
20.09.2018 14:00:00 28,6 18,0 9 5 NNE 1023,8 0,0
20.09.2018 13:00:00 27,1 18,3 15 8 NNE 1024,2 -
20.09.2018 12:00:00 24,5 18,6 15 8 N 1024,1 -
20.09.2018 11:00:00 21,9 18,6 9 5 N 1024,0 -
20.09.2018 10:00:00 18,7 17,0 9 5 NNW 1023,8 -
20.09.2018 09:00:00 18,2 16,5 8 4 NNW 1023,6 -
20.09.2018 08:00:00 18,4 16,7 11 6 NNW 1023,5 0,0
20.09.2018 07:00:00 18,9 17,2 9 5 NNW 1023,7 -
20.09.2018 06:00:00 19,5 17,8 8 4 NNE 1023,8 -
20.09.2018 05:00:00 19,1 17,4 8 4 NNW 1024,0 -
20.09.2018 04:00:00 19,6 17,9 5 3 NW 1024,3 -
20.09.2018 03:00:00 19,4 17,7 5 3 NNW 1024,5 -
20.09.2018 02:00:00 20,8 18,7 2 1 NNW 1024,9 0,0
20.09.2018 01:00:00 21,1 19,3 8 4 N 1024,9 -
20.09.2018 00:00:00 22,2 20,4 0 0 N 1024,5 -
19.09.2018 23:00:00 21,9 19,6 0 0 N 1024,4 -
19.09.2018 22:00:00 22,5 18,8 4 2 SE 1023,6 -
19.09.2018 21:00:00 24,8 19,6 4 2 SE 1023,5 -
19.09.2018 20:00:00 27,1 20,4 5 3 SE 1023,1 0,0
19.09.2018 19:00:00 27,7 21,4 15 8 S 1022,9 -
19.09.2018 18:00:00 27,7 21,7 9 5 S 1023,2 -
19.09.2018 17:00:00 28,9 21,6 11 6 ESE 1023,3 -
19.09.2018 16:00:00 27,5 19,2 2 1 WSW 1023,9 -
19.09.2018 15:00:00 27,2 20,7 5 3 SE 1024,1 -
19.09.2018 14:00:00 25,6 20,8 5 3 E 1024,4 0,0
19.09.2018 13:00:00 24,8 21,3 0 0 N 1024,7 -
19.09.2018 12:00:00 23,3 20,4 5 3 NNW 1024,9 -
19.09.2018 11:00:00 20,7 18,9 8 4 NNE 1024,6 -
19.09.2018 10:00:00 18,5 16,8 5 3 NNW 1024,5 -
19.09.2018 09:00:00 17,7 16,0 4 2 N 1023,8 -
19.09.2018 08:00:00 17,6 15,9 5 3 N 1023,6 0,0
19.09.2018 07:00:00 18,0 16,3 4 2 NNE 1023,5 -
19.09.2018 06:00:00 18,7 17,0 5 3 N 1023,8 -
19.09.2018 05:00:00 18,9 17,2 4 2 NNW 1023,8 -
19.09.2018 04:00:00 19,0 17,3 0 0 N 1024,2 -
19.09.2018 03:00:00 19,6 17,9 0 0 N 1024,0 -
19.09.2018 02:00:00 20,1 18,3 0 0 N 1024,0 0,0
19.09.2018 01:00:00 20,8 19,0 0 0 N 1024,0 -
19.09.2018 00:00:00 20,9 19,1 0 0 N 1024,0 -
18.09.2018 23:00:00 21,8 19,3 0 0 N 1023,3 -
18.09.2018 22:00:00 23,4 20,7 5 3 SE 1023,3 -
18.09.2018 21:00:00 24,4 19,8 9 5 SE 1022,8 -
18.09.2018 20:00:00 26,6 19,4 5 3 SSE 1022,5 0,0
18.09.2018 19:00:00 27,6 18,3 11 6 SE 1022,4 -
18.09.2018 18:00:00 28,3 18,3 15 8 E 1022,6 -
18.09.2018 17:00:00 28,6 18,9 5 3 ESE 1023,3 -
18.09.2018 16:00:00 28,3 19,2 15 8 SE 1023,8 -
18.09.2018 15:00:00 28,3 18,9 8 4 E 1023,9 -
18.09.2018 14:00:00 26,9 18,7 4 2 ENE 1024,2 0,0
18.09.2018 13:00:00 25,2 18,8 8 4 E 1024,6 -
18.09.2018 12:00:00 23,0 18,9 5 3 N 1024,5 -
18.09.2018 11:00:00 20,2 18,4 4 2 N 1024,7 -
18.09.2018 10:00:00 17,6 15,9 5 3 N 1024,7 -
18.09.2018 09:00:00 16,6 14,9 4 2 N 1024,2 -
18.09.2018 08:00:00 16,5 14,8 0 0 N 1024,1 0,0
18.09.2018 07:00:00 17,3 15,6 8 4 NNW 1024,1 -
18.09.2018 06:00:00 17,6 15,9 4 2 NNW 1024,2 -
18.09.2018 05:00:00 17,5 15,8 0 0 N 1024,1 -
18.09.2018 04:00:00 18,2 16,5 0 0 N 1024,2 -
18.09.2018 03:00:00 18,7 17,0 0 0 N 1024,4 -
18.09.2018 02:00:00 18,5 16,8 0 0 N 1024,6 0,0
18.09.2018 01:00:00 18,8 17,1 0 0 N 1025,0 -
18.09.2018 00:00:00 19,3 17,6 0 0 N 1025,0 -
17.09.2018 23:00:00 20,4 17,2 0 0 N 1024,8 -
17.09.2018 22:00:00 23,1 17,7 4 2 SSE 1024,3 -
17.09.2018 21:00:00 25,5 17,1 5 3 SE 1023,9 -
17.09.2018 20:00:00 28,1 16,6 5 3 SE 1023,5 0,0
17.09.2018 19:00:00 28,5 17,0 4 2 S 1023,6 -
17.09.2018 18:00:00 28,6 19,2 4 2 SE 1024,1 -
17.09.2018 17:00:00 28,7 19,3 5 3 SE 1024,7 -
17.09.2018 16:00:00 28,6 17,7 2 1 WNW 1025,1 -
17.09.2018 15:00:00 27,5 17,6 2 1 SE 1025,7 -
17.09.2018 14:00:00 26,5 18,8 4 2 N 1026,0 0,0
17.09.2018 13:00:00 25,0 20,2 0 0 N 1026,3 -
17.09.2018 12:00:00 21,7 19,0 2 1 NNW 1026,4 -
17.09.2018 11:00:00 19,5 17,8 8 4 N 1026,1 -
17.09.2018 10:00:00 17,2 15,5 5 3 N 1026,0 -
17.09.2018 09:00:00 16,7 15,0 4 2 NNW 1025,7 -
17.09.2018 08:00:00 17,1 15,4 4 2 N 1025,5 0,0
17.09.2018 07:00:00 17,4 15,7 4 2 NNE 1025,4 -
17.09.2018 06:00:00 17,3 15,6 5 3 NNW 1025,7 -
17.09.2018 05:00:00 17,4 15,7 4 2 N 1025,7 -
17.09.2018 04:00:00 17,5 15,8 4 2 N 1026,1 -
17.09.2018 03:00:00 18,0 16,3 0 0 N 1026,3 -
17.09.2018 02:00:00 18,3 16,6 0 0 N 1026,5 0,0
17.09.2018 01:00:00 18,6 16,9 0 0 N 1026,8 -
17.09.2018 00:00:00 19,4 17,7 4 2 E 1026,4 -
16.09.2018 23:00:00 20,2 17,0 0 0 N 1026,0 -
16.09.2018 22:00:00 21,8 17,3 0 0 N 1025,7 -
16.09.2018 21:00:00 24,2 17,1 5 3 S 1025,4 -
16.09.2018 20:00:00 26,9 16,7 8 4 ESE 1025,3 0,0
16.09.2018 19:00:00 27,5 17,6 11 6 S 1025,3 -
16.09.2018 18:00:00 28,9 18,6 4 2 SE 1025,4 -
16.09.2018 17:00:00 28,8 18,2 8 4 E 1025,8 -
16.09.2018 16:00:00 28,4 16,9 4 2 E 1026,4 -
16.09.2018 15:00:00 27,8 17,6 9 5 ENE 1026,8 -
16.09.2018 14:00:00 26,8 16,7 13 7 NNE 1027,3 0,0
16.09.2018 13:00:00 26,3 17,9 21 11 NNE 1027,2 -
16.09.2018 12:00:00 23,5 18,3 9 5 N 1027,3 -
16.09.2018 11:00:00 21,1 18,8 8 4 NNE 1027,2 -
16.09.2018 10:00:00 18,0 16,3 8 4 N 1027,0 -
16.09.2018 09:00:00 17,1 15,4 8 4 NNW 1026,6 -
16.09.2018 08:00:00 17,4 15,7 5 3 NNW 1026,5 0,0
16.09.2018 07:00:00 17,3 15,6 8 4 N 1026,6 -
16.09.2018 06:00:00 17,8 16,1 2 1 NW 1026,6 -
16.09.2018 05:00:00 18,4 16,7 5 3 N 1026,8 -
16.09.2018 04:00:00 18,8 17,1 5 3 N 1026,7 -
16.09.2018 03:00:00 19,4 17,7 8 4 N 1027,0 -
16.09.2018 02:00:00 19,4 17,7 0 0 N 1026,8 0,0
16.09.2018 01:00:00 19,7 18,0 9 5 N 1026,5 -
16.09.2018 00:00:00 19,7 18,0 0 0 N 1026,0 -
15.09.2018 23:00:00 20,7 18,4 0 0 N 1025,6 -
15.09.2018 22:00:00 22,1 18,6 0 0 N 1024,9 -
15.09.2018 21:00:00 24,7 19,0 4 2 SSE 1024,3 -
15.09.2018 20:00:00 26,0 19,6 13 7 SE 1024,0 0,0
15.09.2018 19:00:00 27,5 20,3 13 7 ENE 1023,9 -
15.09.2018 18:00:00 28,2 20,2 5 3 SE 1023,9 -
15.09.2018 17:00:00 28,1 20,3 8 4 NNW 1024,1 -
15.09.2018 16:00:00 27,1 19,6 5 3 N 1024,5 -
15.09.2018 15:00:00 26,4 19,7 4 2 NNW 1024,8 -
15.09.2018 14:00:00 25,0 19,3 5 3 E 1025,0 0,0
15.09.2018 13:00:00 22,8 19,7 4 2 NNW 1024,7 -
15.09.2018 12:00:00 21,3 19,4 4 2 NNE 1024,0 -
15.09.2018 11:00:00 20,3 18,5 0 0 N 1023,5 -
15.09.2018 10:00:00 19,4 17,7 8 4 N 1023,2 -
15.09.2018 09:00:00 19,0 17,3 4 2 NW 1022,6 -
15.09.2018 08:00:00 18,4 16,7 8 4 N 1022,1 0,0
15.09.2018 07:00:00 18,0 16,3 11 6 N 1022,0 -
15.09.2018 06:00:00 18,5 16,8 9 5 NNE 1022,2 -
15.09.2018 05:00:00 20,1 18,0 16 9 ENE 1023,0 -
15.09.2018 04:00:00 20,7 18,9 9 5 NNE 1021,9 -
15.09.2018 03:00:00 20,7 18,9 4 2 NE 1021,9 -
15.09.2018 02:00:00 20,8 19,0 0 0 N 1021,5 0,0
15.09.2018 01:00:00 21,2 19,4 4 2 NNE 1021,1 -

tt = temperature
td = dewpoint
ff = wind speed
dd = wind direction
ppp = reduced air pressure
rr = precipitation

Next stations